Time;durP1;ratioP1;P1;durP2;ratioP2;P2;SDS_P1;SDS_P2;PMS_P1;PMS_P2;Temp;Humidity;BMP_temperature;BMP_pressure;BME280_temperature;BME280_humidity;BME280_pressure;Samples;Min_cycle;Max_cycle;Signal;HPM_P1;HPM_P2
2021/04/30 00:01:18;;;;;;;;;;;;;;;;;;4975300;28;19910;-55
2021/04/30 00:03:43;;;;;;;;;;;;;;;;;;4973425;28;20357;-53
2021/04/30 00:06:08;;;;;;;;;;;;;;;;;;4974865;28;20344;-56
2021/04/30 00:08:34;;;;;;;;;;;;;;;;;;4974401;28;19912;-54
2021/04/30 00:10:59;;;;;;;;;;;;;;;;;;4973619;28;19920;-59
2021/04/30 00:13:24;;;;;;;;;;;;;;;;;;4974767;28;19921;-52
2021/04/30 00:15:49;;;;;;;;;;;;;;;;;;4973197;28;19918;-55
2021/04/30 00:18:15;;;;;;;;;;;;;;;;;;4974698;28;20318;-54
2021/04/30 00:20:46;;;;;;;;;;;;;;;;;;4973189;28;20000;-53
2021/04/30 00:23:12;;;;;;;;;;;;;;;;;;4974401;28;19914;-54
2021/04/30 00:25:37;;;;;;;;;;;;;;;;;;4974245;28;19906;-55
2021/04/30 00:28:02;;;;;;;;;;;;;;;;;;4974619;28;19956;-55
2021/04/30 00:30:28;;;;;;;;;;;;;;;;;;4957201;28;19942;-54
2021/04/30 00:32:53;;;;;;;;;;;;;;;;;;4974333;28;19921;-53
2021/04/30 00:35:18;;;;;;;;;;;;;;;;;;4974311;28;19918;-54
2021/04/30 00:37:43;;;;;;;;;;;;;;;;;;4973729;28;20374;-53
2021/04/30 00:40:09;;;;;;;;;;;;;;;;;;4972738;28;19917;-54
2021/04/30 00:42:34;;;;;;;;;;;;;;;;;;4974292;28;19913;-53
2021/04/30 00:44:59;;;;;;;;;;;;;;;;;;4972873;28;19916;-54
2021/04/30 00:47:25;;;;;;;;;;;;;;;;;;4973968;28;20370;-54
2021/04/30 00:49:50;;;;;;;;;;;;;;;;;;4972600;28;20362;-52
2021/04/30 00:52:15;;;;;;;;;;;;;;;;;;4972682;28;20047;-56
2021/04/30 00:54:40;;;;;;;;;;;;;;;;;;4973633;28;19921;-53
2021/04/30 00:57:05;;;;;;;;;;;;;;;;;;4972704;28;19910;-55
2021/04/30 00:59:31;;;;;;;;;;;;;;;;;;4972707;28;19910;-54
2021/04/30 01:01:56;;;;;;;;;;;;;;;;;;4973766;28;19964;-55
2021/04/30 01:04:21;;;;;;;;;;;;;;;;;;4973487;28;20317;-55
2021/04/30 01:06:46;;;;;;;;;;;;;;;;;;4973640;28;19968;-50
2021/04/30 01:09:11;;;;;;;;;;;;;;;;;;4973742;28;19910;-55
2021/04/30 01:11:37;;;;;;;;;;;;;;;;;;4972613;28;19925;-56
2021/04/30 01:14:02;;;;;;;;;;;;;;;;;;4956193;28;20009;-56
2021/04/30 01:16:27;;;;;;;;;;;;;;;;;;4973993;28;20320;-55
2021/04/30 01:18:52;;;;;;;;;;;;;;;;;;4973948;28;20370;-52
2021/04/30 01:21:18;;;;;;;;;;;;;;;;;;4974347;28;19914;-55
2021/04/30 01:23:43;;;;;;;;;;;;;;;;;;4971919;28;19913;-54
2021/04/30 01:26:08;;;;;;;;;;;;;;;;;;4972636;28;19910;-54
2021/04/30 01:28:33;;;;;;;;;;;;;;;;;;4973658;28;19910;-54
2021/04/30 01:30:59;;;;;;;;;;;;;;;;;;4971773;28;20730;-55
2021/04/30 01:33:24;;;;;;;;;;;;;;;;;;4973519;28;19910;-51
2021/04/30 01:35:49;;;;;;;;;;;;;;;;;;4973258;28;20361;-55
2021/04/30 01:38:14;;;;;;;;;;;;;;;;;;4971979;28;20056;-55
2021/04/30 01:40:40;;;;;;;;;;;;;;;;;;4972142;28;19914;-55
2021/04/30 01:43:05;;;;;;;;;;;;;;;;;;4971919;28;20290;-55
2021/04/30 01:45:31;;;;;;;;;;;;;;;;;;4973644;28;20000;-57
2021/04/30 01:47:56;;;;;;;;;;;;;;;;;;4973139;28;19906;-54
2021/04/30 01:50:21;;;;;;;;;;;;;;;;;;4972126;28;19977;-53
2021/04/30 01:52:46;;;;;;;;;;;;;;;;;;4972684;28;19914;-52
2021/04/30 01:55:12;;;;;;;;;;;;;;;;;;4973280;28;20389;-54
2021/04/30 01:57:37;;;;;;;;;;;;;;;;;;4974105;28;19917;-54
2021/04/30 02:00:02;;;;;;;;;;;;;;;;;;4976088;28;20113;-54
2021/04/30 02:02:30;;;;;;;;;;;;;;;;;;4975919;28;19999;-54
2021/04/30 02:04:55;;;;;;;;;;;;;;;;;;4975464;28;20374;-52
2021/04/30 02:07:21;;;;;;;;;;;;;;;;;;4977420;28;19964;-57
2021/04/30 02:09:46;;;;;;;;;;;;;;;;;;4975200;28;19910;-53
2021/04/30 02:12:15;;;;;;;;;;;;;;;;;;4976836;28;19910;-54
2021/04/30 02:14:40;;;;;;;;;;;;;;;;;;4975651;28;20366;-56
2021/04/30 02:17:06;;;;;;;;;;;;;;;;;;4976534;28;19910;-55
2021/04/30 02:19:31;;;;;;;;;;;;;;;;;;4977165;28;20000;-53
2021/04/30 02:21:57;;;;;;;;;;;;;;;;;;4976890;28;19933;-53
2021/04/30 02:24:22;;;;;;;;;;;;;;;;;;4976575;28;19913;-52
2021/04/30 02:26:47;;;;;;;;;;;;;;;;;;4959180;28;19965;-55
2021/04/30 02:29:13;;;;;;;;;;;;;;;;;;4975424;28;19981;-56
2021/04/30 02:31:38;;;;;;;;;;;;;;;;;;4976354;28;19918;-54
2021/04/30 02:34:03;;;;;;;;;;;;;;;;;;4976101;28;19918;-55
2021/04/30 02:36:28;;;;;;;;;;;;;;;;;;4974925;28;19910;-54
2021/04/30 02:38:54;;;;;;;;;;;;;;;;;;4974649;28;20338;-54
2021/04/30 02:41:19;;;;;;;;;;;;;;;;;;4976415;28;19910;-56
2021/04/30 02:43:44;;;;;;;;;;;;;;;;;;4974943;28;19921;-54
2021/04/30 02:46:09;;;;;;;;;;;;;;;;;;4974875;28;19910;-54
2021/04/30 02:48:37;;;;;;;;;;;;;;;;;;4976307;28;19914;-55
2021/04/30 02:51:02;;;;;;;;;;;;;;;;;;4976040;28;19910;-55
2021/04/30 02:53:28;;;;;;;;;;;;;;;;;;4976585;28;20373;-54
2021/04/30 02:55:53;;;;;;;;;;;;;;;;;;4974489;28;20341;-57
2021/04/30 02:58:18;;;;;;;;;;;;;;;;;;4974827;28;19965;-56
2021/04/30 03:00:43;;;;;;;;;;;;;;;;;;4958005;28;19914;-55
2021/04/30 03:03:09;;;;;;;;;;;;;;;;;;4955022;29;20080;-57
2021/04/30 03:05:34;;;;;;;;;;;;;;;;;;4955611;29;19910;-54
2021/04/30 03:07:59;;;;;;;;;;;;;;;;;;4956493;29;19910;-54
2021/04/30 03:10:24;;;;;;;;;;;;;;;;;;4955211;28;20278;-57
2021/04/30 03:12:51;;;;;;;;;;;;;;;;;;4956531;29;19938;-57
2021/04/30 03:15:16;;;;;;;;;;;;;;;;;;4955251;29;19919;-56
2021/04/30 03:17:41;;;;;;;;;;;;;;;;;;4956603;29;19962;-55
2021/04/30 03:20:06;;;;;;;;;;;;;;;;;;4955981;29;20005;-56
2021/04/30 03:22:32;;;;;;;;;;;;;;;;;;4954964;29;19938;-55
2021/04/30 03:24:57;;;;;;;;;;;;;;;;;;4954727;29;19966;-54
2021/04/30 03:27:25;;;;;;;;;;;;;;;;;;4956504;29;19910;-56
2021/04/30 03:29:51;;;;;;;;;;;;;;;;;;4956271;28;19933;-55
2021/04/30 03:32:16;;;;;;;;;;;;;;;;;;4956482;28;20342;-56
2021/04/30 03:34:41;;;;;;;;;;;;;;;;;;4955767;29;20374;-55
2021/04/30 03:37:06;;;;;;;;;;;;;;;;;;4968737;28;19972;-55
2021/04/30 03:39:32;;;;;;;;;;;;;;;;;;4974886;28;19961;-53
2021/04/30 03:41:57;;;;;;;;;;;;;;;;;;4965573;28;19918;-53
2021/04/30 03:44:22;;;;;;;;;;;;;;;;;;4956342;29;19911;-55
2021/04/30 03:46:47;;;;;;;;;;;;;;;;;;4955841;29;19917;-55
2021/04/30 03:49:12;;;;;;;;;;;;;;;;;;4955540;29;19956;-56
2021/04/30 03:51:38;;;;;;;;;;;;;;;;;;4955710;29;19966;-54
2021/04/30 03:54:03;;;;;;;;;;;;;;;;;;4955231;29;19922;-56
2021/04/30 03:56:28;;;;;;;;;;;;;;;;;;4956151;29;19916;-54
2021/04/30 03:58:53;;;;;;;;;;;;;;;;;;4954611;29;20010;-53
2021/04/30 04:01:19;;;;;;;;;;;;;;;;;;4955369;29;19922;-53
2021/04/30 04:03:44;;;;;;;;;;;;;;;;;;4954084;29;19914;-53
2021/04/30 04:06:09;;;;;;;;;;;;;;;;;;4955173;29;20318;-54
2021/04/30 04:08:34;;;;;;;;;;;;;;;;;;4955267;29;19918;-52
2021/04/30 04:11:00;;;;;;;;;;;;;;;;;;4938111;29;20025;-54
2021/04/30 04:13:25;;;;;;;;;;;;;;;;;;4954295;29;20318;-53
2021/04/30 04:15:50;;;;;;;;;;;;;;;;;;4955439;29;19930;-56
2021/04/30 04:18:15;;;;;;;;;;;;;;;;;;4955149;29;20009;-55
2021/04/30 04:20:40;;;;;;;;;;;;;;;;;;4953467;28;19950;-53
2021/04/30 04:23:06;;;;;;;;;;;;;;;;;;4953492;29;19910;-55
2021/04/30 04:25:31;;;;;;;;;;;;;;;;;;4954089;29;19921;-54
2021/04/30 04:27:56;;;;;;;;;;;;;;;;;;4955148;29;20398;-54
2021/04/30 04:30:21;;;;;;;;;;;;;;;;;;4954742;29;20331;-55
2021/04/30 04:32:47;;;;;;;;;;;;;;;;;;4954934;29;19926;-56
2021/04/30 04:35:12;;;;;;;;;;;;;;;;;;4954931;28;19989;-55
2021/04/30 04:37:38;;;;;;;;;;;;;;;;;;4953827;29;20381;-55
2021/04/30 04:40:03;;;;;;;;;;;;;;;;;;4953270;29;20414;-54
2021/04/30 04:42:28;;;;;;;;;;;;;;;;;;4954941;29;19933;-55
2021/04/30 04:44:53;;;;;;;;;;;;;;;;;;4953679;29;19918;-55
2021/04/30 04:47:18;;;;;;;;;;;;;;;;;;4954584;29;19917;-54
2021/04/30 04:49:44;;;;;;;;;;;;;;;;;;4953541;29;20405;-55
2021/04/30 04:52:09;;;;;;;;;;;;;;;;;;4954256;29;19910;-54
2021/04/30 04:54:34;;;;;;;;;;;;;;;;;;4954488;29;20017;-55
2021/04/30 04:56:59;;;;;;;;;;;;;;;;;;4954610;29;19917;-54
2021/04/30 04:59:25;;;;;;;;;;;;;;;;;;4954337;29;19911;-54
2021/04/30 05:01:50;;;;;;;;;;;;;;;;;;4954840;29;19917;-55
2021/04/30 05:04:15;;;;;;;;;;;;;;;;;;4954364;29;20293;-54
2021/04/30 05:06:41;;;;;;;;;;;;;;;;;;4954654;29;20228;-56
2021/04/30 05:09:06;;;;;;;;;;;;;;;;;;4954269;29;20365;-55
2021/04/30 05:11:31;;;;;;;;;;;;;;;;;;4953369;29;19916;-56
2021/04/30 05:13:56;;;;;;;;;;;;;;;;;;4953191;29;20013;-54
2021/04/30 05:16:21;;;;;;;;;;;;;;;;;;4952816;29;20278;-53
2021/04/30 05:18:47;;;;;;;;;;;;;;;;;;4953408;29;19911;-54
2021/04/30 05:21:12;;;;;;;;;;;;;;;;;;4954070;29;19917;-54
2021/04/30 05:23:37;;;;;;;;;;;;;;;;;;4954396;29;19989;-54
2021/04/30 05:26:02;;;;;;;;;;;;;;;;;;4937085;29;19910;-53
2021/04/30 05:28:28;;;;;;;;;;;;;;;;;;4954450;29;19917;-56
2021/04/30 05:30:53;;;;;;;;;;;;;;;;;;4953134;29;19910;-53
2021/04/30 05:33:18;;;;;;;;;;;;;;;;;;4953329;29;19972;-55
2021/04/30 05:35:43;;;;;;;;;;;;;;;;;;4954184;29;20334;-54
2021/04/30 05:38:09;;;;;;;;;;;;;;;;;;4953696;29;20000;-55
2021/04/30 05:40:34;;;;;;;;;;;;;;;;;;4953052;29;19910;-55
2021/04/30 05:42:59;;;;;;;;;;;;;;;;;;4954393;29;19971;-54
2021/04/30 05:45:24;;;;;;;;;;;;;;;;;;4953982;29;19957;-54
2021/04/30 05:47:50;;;;;;;;;;;;;;;;;;4952912;29;19938;-54
2021/04/30 05:50:15;;;;;;;;;;;;;;;;;;4952512;29;19976;-54
2021/04/30 05:52:40;;;;;;;;;;;;;;;;;;4953933;29;19914;-55
2021/04/30 05:55:05;;;;;;;;;;;;;;;;;;4952607;29;19919;-55
2021/04/30 05:57:31;;;;;;;;;;;;;;;;;;4952332;29;19914;-55
2021/04/30 05:59:56;;;;;;;;;;;;;;;;;;4954243;29;19911;-55
2021/04/30 06:02:21;;;;;;;;;;;;;;;;;;4952407;29;19953;-56
2021/04/30 06:04:46;;;;;;;;;;;;;;;;;;4952975;29;19977;-57
2021/04/30 06:07:12;;;;;;;;;;;;;;;;;;4953860;29;20374;-55
2021/04/30 06:09:37;;;;;;;;;;;;;;;;;;4956148;29;20362;-56
2021/04/30 06:12:02;;;;;;;;;;;;;;;;;;4953986;29;19915;-54
2021/04/30 06:14:32;;;;;;;;;;;;;;;;;;4953442;29;19989;-55
2021/04/30 06:16:57;;;;;;;;;;;;;;;;;;4953734;29;19910;-54
2021/04/30 06:19:23;;;;;;;;;;;;;;;;;;4953460;29;19934;-55
2021/04/30 06:21:48;;;;;;;;;;;;;;;;;;4953982;29;19910;-55
2021/04/30 06:24:13;;;;;;;;;;;;;;;;;;4953235;29;20255;-52
2021/04/30 06:26:38;;;;;;;;;;;;;;;;;;4954153;29;20239;-55
2021/04/30 06:29:04;;;;;;;;;;;;;;;;;;4952361;29;19910;-54
2021/04/30 06:31:29;;;;;;;;;;;;;;;;;;4953343;28;20029;-55
2021/04/30 06:33:54;;;;;;;;;;;;;;;;;;4953522;29;19906;-55
2021/04/30 06:36:20;;;;;;;;;;;;;;;;;;4953242;29;19910;-57
2021/04/30 06:38:47;;;;;;;;;;;;;;;;;;4952387;29;19918;-55
2021/04/30 06:41:12;;;;;;;;;;;;;;;;;;4952369;29;20001;-58
2021/04/30 06:43:38;;;;;;;;;;;;;;;;;;4954294;28;20132;-55
2021/04/30 06:46:03;;;;;;;;;;;;;;;;;;4957605;29;19910;-55
2021/04/30 06:48:28;;;;;;;;;;;;;;;;;;4956024;29;20289;-55
2021/04/30 06:50:53;;;;;;;;;;;;;;;;;;4939974;29;20317;-55
2021/04/30 06:53:19;;;;;;;;;;;;;;;;;;4957021;29;20305;-55
2021/04/30 06:55:44;;;;;;;;;;;;;;;;;;4956709;29;19918;-55
2021/04/30 06:58:09;;;;;;;;;;;;;;;;;;4956989;29;19911;-55
2021/04/30 07:00:34;;;;;;;;;;;;;;;;;;4955287;29;19966;-54
2021/04/30 07:03:00;;;;;;;;;;;;;;;;;;4955159;29;19910;-54
2021/04/30 07:05:25;;;;;;;;;;;;;;;;;;4956166;29;20335;-54
2021/04/30 07:07:50;;;;;;;;;;;;;;;;;;4955497;29;19914;-54
2021/04/30 07:10:15;;;;;;;;;;;;;;;;;;4956611;28;19910;-57
2021/04/30 07:12:41;;;;;;;;;;;;;;;;;;4955420;29;19918;-55
2021/04/30 07:15:06;;;;;;;;;;;;;;;;;;4956622;29;20382;-55
2021/04/30 07:17:31;;;;;;;;;;;;;;;;;;4955953;29;20242;-55
2021/04/30 07:19:56;;;;;;;;;;;;;;;;;;4955456;29;19961;-57
2021/04/30 07:22:22;;;;;;;;;;;;;;;;;;4955971;29;19906;-57
2021/04/30 07:24:47;;;;;;;;;;;;;;;;;;4956584;29;19921;-56
2021/04/30 07:27:12;;;;;;;;;;;;;;;;;;4956765;29;20333;-54
2021/04/30 07:29:37;;;;;;;;;;;;;;;;;;4954387;29;19918;-54
2021/04/30 07:32:03;;;;;;;;;;;;;;;;;;4954694;29;20283;-55
2021/04/30 07:34:28;;;;;;;;;;;;;;;;;;4954454;29;20286;-55
2021/04/30 07:36:53;;;;;;;;;;;;;;;;;;4956298;29;19972;-56
2021/04/30 07:39:18;;;;;;;;;;;;;;;;;;4955683;29;20267;-57
2021/04/30 07:41:43;;;;;;;;;;;;;;;;;;4956167;29;20367;-55
2021/04/30 07:44:09;;;;;;;;;;;;;;;;;;4955251;29;19997;-54
2021/04/30 07:46:34;;;;;;;;;;;;;;;;;;4954731;29;19911;-54
2021/04/30 07:48:59;;;;;;;;;;;;;;;;;;4955894;29;19917;-55
2021/04/30 07:51:24;;;;;;;;;;;;;;;;;;4954160;29;20358;-55
2021/04/30 07:53:50;;;;;;;;;;;;;;;;;;4938564;29;19917;-55
2021/04/30 07:56:15;;;;;;;;;;;;;;;;;;4953693;28;20389;-53
2021/04/30 07:58:41;;;;;;;;;;;;;;;;;;4955227;29;20279;-54
2021/04/30 08:01:06;;;;;;;;;;;;;;;;;;4955902;28;19968;-54
2021/04/30 08:03:31;;;;;;;;;;;;;;;;;;4955148;29;19911;-54
2021/04/30 08:05:56;;;;;;;;;;;;;;;;;;4954137;29;19938;-54
2021/04/30 08:08:22;;;;;;;;;;;;;;;;;;4954910;28;20020;-55
2021/04/30 08:10:47;;;;;;;;;;;;;;;;;;4953875;29;19911;-55
2021/04/30 08:13:12;;;;;;;;;;;;;;;;;;4955235;29;19958;-55
2021/04/30 08:15:38;;;;;;;;;;;;;;;;;;4954885;29;20332;-56
2021/04/30 08:18:03;;;;;;;;;;;;;;;;;;4953964;29;20088;-55
2021/04/30 08:20:28;;;;;;;;;;;;;;;;;;4953663;29;19921;-55
2021/04/30 08:22:53;;;;;;;;;;;;;;;;;;4954726;29;20286;-55
2021/04/30 08:25:19;;;;;;;;;;;;;;;;;;4954024;29;19979;-56
2021/04/30 08:27:44;;;;;;;;;;;;;;;;;;4953702;29;19911;-55
2021/04/30 08:30:09;;;;;;;;;;;;;;;;;;4957511;28;19977;-53
2021/04/30 08:32:34;;;;;;;;;;;;;;;;;;4972448;28;20035;-55
2021/04/30 08:35:00;;;;;;;;;;;;;;;;;;4972268;28;19925;-56
2021/04/30 08:37:25;;;;;;;;;;;;;;;;;;4972435;28;19917;-53
2021/04/30 08:39:50;;;;;;;;;;;;;;;;;;4971275;28;19957;-56
2021/04/30 08:42:15;;;;;;;;;;;;;;;;;;4972460;28;20358;-55
2021/04/30 08:44:41;;;;;;;;;;;;;;;;;;4972772;28;19910;-55
2021/04/30 08:47:06;;;;;;;;;;;;;;;;;;4971330;28;19910;-53
2021/04/30 08:49:31;;;;;;;;;;;;;;;;;;4972454;28;20416;-54
2021/04/30 08:51:56;;;;;;;;;;;;;;;;;;4972586;28;19917;-54
2021/04/30 08:54:21;;;;;;;;;;;;;;;;;;4972453;28;19922;-55
2021/04/30 08:56:51;;;;;;;;;;;;;;;;;;4972340;28;19937;-53
2021/04/30 08:59:16;;;;;;;;;;;;;;;;;;4972463;28;19925;-53
2021/04/30 09:01:41;;;;;;;;;;;;;;;;;;4972478;28;19913;-54
2021/04/30 09:04:06;;;;;;;;;;;;;;;;;;4972718;28;19910;-55
2021/04/30 09:06:32;;;;;;;;;;;;;;;;;;4971823;28;20017;-55
2021/04/30 09:08:57;;;;;;;;;;;;;;;;;;4970558;28;20072;-54
2021/04/30 09:11:22;;;;;;;;;;;;;;;;;;4972594;28;19937;-56
2021/04/30 09:13:47;;;;;;;;;;;;;;;;;;4972526;28;20043;-56
2021/04/30 09:16:13;;;;;;;;;;;;;;;;;;4972387;28;19980;-57
2021/04/30 09:18:38;;;;;;;;;;;;;;;;;;4972558;28;19917;-56
2021/04/30 09:21:03;;;;;;;;;;;;;;;;;;4972444;28;20330;-57
2021/04/30 09:23:28;;;;;;;;;;;;;;;;;;4971988;28;19910;-55
2021/04/30 09:25:53;;;;;;;;;;;;;;;;;;4972307;28;20313;-55
2021/04/30 09:28:19;;;;;;;;;;;;;;;;;;4972667;28;19910;-54
2021/04/30 09:30:44;;;;;;;;;;;;;;;;;;4973294;28;19910;-54
2021/04/30 09:33:10;;;;;;;;;;;;;;;;;;4973398;28;20028;-55
2021/04/30 09:35:35;;;;;;;;;;;;;;;;;;4972952;28;19980;-54
2021/04/30 09:38:00;;;;;;;;;;;;;;;;;;4972034;28;19957;-54
2021/04/30 09:40:26;;;;;;;;;;;;;;;;;;4972510;28;19958;-55
2021/04/30 09:42:51;;;;;;;;;;;;;;;;;;4973429;28;19997;-55
2021/04/30 09:45:16;;;;;;;;;;;;;;;;;;4972158;28;20239;-56
2021/04/30 09:47:41;;;;;;;;;;;;;;;;;;4972893;28;19932;-55
2021/04/30 09:50:07;;;;;;;;;;;;;;;;;;4973389;28;19985;-57
2021/04/30 09:52:32;;;;;;;;;;;;;;;;;;4972928;28;19964;-54
2021/04/30 09:55:05;;;;;;;;;;;;;;;;;;4973356;28;19925;-56
2021/04/30 09:57:31;;;;;;;;;;;;;;;;;;4971973;28;19910;-54
2021/04/30 09:59:56;;;;;;;;;;;;;;;;;;4973684;28;19914;-56
2021/04/30 10:02:21;;;;;;;;;;;;;;;;;;4973378;28;19917;-56
2021/04/30 10:04:46;;;;;;;;;;;;;;;;;;4973113;28;19910;-56
2021/04/30 10:07:12;;;;;;;;;;;;;;;;;;4972011;28;19906;-55
2021/04/30 10:09:37;;;;;;;;;;;;;;;;;;4972908;28;20005;-56
2021/04/30 10:12:02;;;;;;;;;;;;;;;;;;4973408;28;19988;-55
2021/04/30 10:14:27;;;;;;;;;;;;;;;;;;4973443;28;19922;-58
2021/04/30 10:16:53;;;;;;;;;;;;;;;;;;4971664;28;19932;-56
2021/04/30 10:19:18;;;;;;;;;;;;;;;;;;4974938;28;19910;-56
2021/04/30 10:21:43;;;;;;;;;;;;;;;;;;4975196;28;20025;-54
2021/04/30 10:24:08;;;;;;;;;;;;;;;;;;4975169;28;19910;-54
2021/04/30 10:26:34;;;;;;;;;;;;;;;;;;4976273;28;19937;-56
2021/04/30 10:28:59;;;;;;;;;;;;;;;;;;4976600;28;19956;-54
2021/04/30 10:31:24;;;;;;;;;;;;;;;;;;4976631;28;20271;-55
2021/04/30 10:33:50;;;;;;;;;;;;;;;;;;4975417;28;19910;-54
2021/04/30 10:36:15;;;;;;;;;;;;;;;;;;4975102;28;20005;-57
2021/04/30 10:38:40;;;;;;;;;;;;;;;;;;4974608;28;20277;-56
2021/04/30 10:41:05;;;;;;;;;;;;;;;;;;4976314;28;19921;-56
2021/04/30 10:43:31;;;;;;;;;;;;;;;;;;4976690;28;20033;-57
2021/04/30 10:45:56;;;;;;;;;;;;;;;;;;4974722;28;19917;-55
2021/04/30 10:48:21;;;;;;;;;;;;;;;;;;4976331;28;20400;-55
2021/04/30 10:50:46;;;;;;;;;;;;;;;;;;4976038;28;19929;-56
2021/04/30 10:53:12;;;;;;;;;;;;;;;;;;4976389;28;19972;-54
2021/04/30 10:55:37;;;;;;;;;;;;;;;;;;4972371;28;19914;-57
2021/04/30 10:58:03;;;;;;;;;;;;;;;;;;4976246;28;19996;-55
2021/04/30 11:00:28;;;;;;;;;;;;;;;;;;4977391;28;19917;-52
2021/04/30 11:02:54;;;;;;;;;;;;;;;;;;4976408;28;19914;-57
2021/04/30 11:05:19;;;;;;;;;;;;;;;;;;4976421;28;19910;-55
2021/04/30 11:07:45;;;;;;;;;;;;;;;;;;4976030;28;19985;-55
2021/04/30 11:10:11;;;;;;;;;;;;;;;;;;4975803;28;19941;-56
2021/04/30 11:12:36;;;;;;;;;;;;;;;;;;4975673;28;19960;-56
2021/04/30 11:15:04;;;;;;;;;;;;;;;;;;4976048;28;19914;-55
2021/04/30 11:17:29;;;;;;;;;;;;;;;;;;4976523;28;19910;-56
2021/04/30 11:19:54;;;;;;;;;;;;;;;;;;4976194;28;20319;-57
2021/04/30 11:22:20;;;;;;;;;;;;;;;;;;4983051;28;19969;-53
2021/04/30 11:24:46;;;;;;;;;;;;;;;;;;4983156;28;19921;-52
2021/04/30 11:27:11;;;;;;;;;;;;;;;;;;4980410;28;19910;-57
2021/04/30 11:29:36;;;;;;;;;;;;;;;;;;4976103;28;19933;-55
2021/04/30 11:32:01;;;;;;;;;;;;;;;;;;4977518;28;19917;-52
2021/04/30 11:34:27;;;;;;;;;;;;;;;;;;4967773;28;20320;-52
2021/04/30 11:36:55;;;;;;;;;;;;;;;;;;4983852;28;19973;-54
2021/04/30 11:39:20;;;;;;;;;;;;;;;;;;4975970;28;19910;-55
2021/04/30 11:41:45;;;;;;;;;;;;;;;;;;4975852;28;19914;-54
2021/04/30 11:44:11;;;;;;;;;;;;;;;;;;4975969;28;19917;-55
2021/04/30 11:46:38;;;;;;;;;;;;;;;;;;4974937;28;19914;-54
2021/04/30 11:49:03;;;;;;;;;;;;;;;;;;4975836;28;20339;-56
2021/04/30 11:51:28;;;;;;;;;;;;;;;;;;4974327;28;19925;-55
2021/04/30 11:53:53;;;;;;;;;;;;;;;;;;4974798;28;19965;-54
2021/04/30 11:56:19;;;;;;;;;;;;;;;;;;4974237;28;19918;-55
2021/04/30 11:58:44;;;;;;;;;;;;;;;;;;4957784;28;19910;-54
2021/04/30 12:01:09;;;;;;;;;;;;;;;;;;4958012;28;19910;-55
2021/04/30 12:03:34;;;;;;;;;;;;;;;;;;4975355;28;19921;-56
2021/04/30 12:06:00;;;;;;;;;;;;;;;;;;4975007;28;19935;-55
2021/04/30 12:08:25;;;;;;;;;;;;;;;;;;4975132;28;19918;-53
2021/04/30 12:10:50;;;;;;;;;;;;;;;;;;4974095;28;19914;-54
2021/04/30 12:13:15;;;;;;;;;;;;;;;;;;4975167;28;19917;-54
2021/04/30 12:15:42;;;;;;;;;;;;;;;;;;4974110;28;19998;-55
2021/04/30 12:18:07;;;;;;;;;;;;;;;;;;4975138;28;19921;-53
2021/04/30 12:20:33;;;;;;;;;;;;;;;;;;4975022;28;19910;-56
2021/04/30 12:22:58;;;;;;;;;;;;;;;;;;4974582;28;20375;-56
2021/04/30 12:25:23;;;;;;;;;;;;;;;;;;4974789;28;19906;-56
2021/04/30 12:27:48;;;;;;;;;;;;;;;;;;4974862;28;19910;-53
2021/04/30 12:30:14;;;;;;;;;;;;;;;;;;4974027;28;19910;-57
2021/04/30 12:32:39;;;;;;;;;;;;;;;;;;4973630;28;20304;-53
2021/04/30 12:35:04;;;;;;;;;;;;;;;;;;4973042;28;19961;-59
2021/04/30 12:37:29;;;;;;;;;;;;;;;;;;4973735;28;19918;-58
2021/04/30 12:39:54;;;;;;;;;;;;;;;;;;4972756;28;20287;-58
2021/04/30 12:42:20;;;;;;;;;;;;;;;;;;4974603;28;20338;-59
2021/04/30 12:44:45;;;;;;;;;;;;;;;;;;4974407;28;19914;-59
2021/04/30 12:47:10;;;;;;;;;;;;;;;;;;4974835;28;19983;-57
2021/04/30 12:49:36;;;;;;;;;;;;;;;;;;4974311;28;19913;-59
2021/04/30 12:52:01;;;;;;;;;;;;;;;;;;4974414;28;19910;-58
2021/04/30 12:54:26;;;;;;;;;;;;;;;;;;4973541;28;19917;-58
2021/04/30 12:56:51;;;;;;;;;;;;;;;;;;4973762;28;20279;-58
2021/04/30 12:59:17;;;;;;;;;;;;;;;;;;4974377;28;19910;-58
2021/04/30 13:01:42;;;;;;;;;;;;;;;;;;4974101;28;19910;-59
2021/04/30 13:04:07;;;;;;;;;;;;;;;;;;4973977;28;19910;-59
2021/04/30 13:06:35;;;;;;;;;;;;;;;;;;4974179;28;19937;-57
2021/04/30 13:09:00;;;;;;;;;;;;;;;;;;4973213;28;19965;-59
2021/04/30 13:11:27;;;;;;;;;;;;;;;;;;4974316;28;19918;-59
2021/04/30 13:13:52;;;;;;;;;;;;;;;;;;4973895;28;19910;-59
2021/04/30 13:16:17;;;;;;;;;;;;;;;;;;4973403;28;20389;-57
2021/04/30 13:18:42;;;;;;;;;;;;;;;;;;4973582;28;19910;-58
2021/04/30 13:21:07;;;;;;;;;;;;;;;;;;4965043;28;19946;-59
2021/04/30 13:23:33;;;;;;;;;;;;;;;;;;4952365;29;19917;-58
2021/04/30 13:25:58;;;;;;;;;;;;;;;;;;4952732;29;19918;-58
2021/04/30 13:28:23;;;;;;;;;;;;;;;;;;4954246;28;19910;-58
2021/04/30 13:30:51;;;;;;;;;;;;;;;;;;4952839;29;20263;-59
2021/04/30 13:33:16;;;;;;;;;;;;;;;;;;4937057;29;19973;-59
2021/04/30 13:35:42;;;;;;;;;;;;;;;;;;4937174;29;19957;-58
2021/04/30 13:38:07;;;;;;;;;;;;;;;;;;4953986;28;19917;-59
2021/04/30 13:40:32;;;;;;;;;;;;;;;;;;4954389;28;20213;-58
2021/04/30 13:43:00;;;;;;;;;;;;;;;;;;4952539;29;19917;-58
2021/04/30 13:45:26;;;;;;;;;;;;;;;;;;4952995;29;20010;-59
2021/04/30 13:47:51;;;;;;;;;;;;;;;;;;4952808;28;19917;-59
2021/04/30 13:50:16;;;;;;;;;;;;;;;;;;4952830;28;20008;-59
2021/04/30 13:52:42;;;;;;;;;;;;;;;;;;4962769;28;19953;-60
2021/04/30 13:55:07;;;;;;;;;;;;;;;;;;4974729;28;19918;-61
2021/04/30 13:57:32;;;;;;;;;;;;;;;;;;4958119;29;19925;-61
2021/04/30 13:59:57;;;;;;;;;;;;;;;;;;4959853;28;20066;-61
2021/04/30 14:02:23;;;;;;;;;;;;;;;;;;4958419;29;19917;-62
2021/04/30 14:04:48;;;;;;;;;;;;;;;;;;4958248;29;19906;-62
2021/04/30 14:07:13;;;;;;;;;;;;;;;;;;4958147;28;19906;-62
2021/04/30 14:09:38;;;;;;;;;;;;;;;;;;4958093;29;19965;-63
2021/04/30 14:12:04;;;;;;;;;;;;;;;;;;4958098;29;19906;-60
2021/04/30 14:14:29;;;;;;;;;;;;;;;;;;4956701;29;19962;-59
2021/04/30 14:16:55;;;;;;;;;;;;;;;;;;4956290;29;19914;-62
2021/04/30 14:19:20;;;;;;;;;;;;;;;;;;4958453;28;19906;-61
2021/04/30 14:21:45;;;;;;;;;;;;;;;;;;4957309;29;19965;-62
2021/04/30 14:24:11;;;;;;;;;;;;;;;;;;4958032;29;20250;-63
2021/04/30 14:26:36;;;;;;;;;;;;;;;;;;4958314;28;19906;-62
2021/04/30 14:29:01;;;;;;;;;;;;;;;;;;4962926;29;19906;-61
2021/04/30 14:31:26;;;;;;;;;;;;;;;;;;4963755;28;19913;-61
2021/04/30 14:33:52;;;;;;;;;;;;;;;;;;4957671;28;20315;-60
2021/04/30 14:36:17;;;;;;;;;;;;;;;;;;4957637;28;19921;-62
2021/04/30 14:38:43;;;;;;;;;;;;;;;;;;4957507;29;19993;-60
2021/04/30 14:41:08;;;;;;;;;;;;;;;;;;4957200;29;19906;-61
2021/04/30 14:43:33;;;;;;;;;;;;;;;;;;4956192;29;19914;-61
2021/04/30 14:45:58;;;;;;;;;;;;;;;;;;4956768;29;19953;-60
2021/04/30 14:48:24;;;;;;;;;;;;;;;;;;4957410;29;19907;-60
2021/04/30 14:50:51;;;;;;;;;;;;;;;;;;4940099;29;19934;-61
2021/04/30 14:53:16;;;;;;;;;;;;;;;;;;4957362;28;19918;-62
2021/04/30 14:55:41;;;;;;;;;;;;;;;;;;4956110;29;19914;-61
2021/04/30 14:58:07;;;;;;;;;;;;;;;;;;4957053;29;20405;-61
2021/04/30 15:00:32;;;;;;;;;;;;;;;;;;4968846;28;19905;-61
2021/04/30 15:02:57;;;;;;;;;;;;;;;;;;4975188;28;19906;-62
2021/04/30 15:05:22;;;;;;;;;;;;;;;;;;4974800;28;19993;-62
2021/04/30 15:07:48;;;;;;;;;;;;;;;;;;4976338;28;19964;-62
2021/04/30 15:10:13;;;;;;;;;;;;;;;;;;4976110;28;20247;-61
2021/04/30 15:12:38;;;;;;;;;;;;;;;;;;4975679;28;20032;-61
2021/04/30 15:15:03;;;;;;;;;;;;;;;;;;4975452;28;20253;-61
2021/04/30 15:17:29;;;;;;;;;;;;;;;;;;4976519;28;19913;-62
2021/04/30 15:19:54;;;;;;;;;;;;;;;;;;4976100;28;19901;-61
2021/04/30 15:22:19;;;;;;;;;;;;;;;;;;4976044;28;20232;-60
2021/04/30 15:24:46;;;;;;;;;;;;;;;;;;4976127;28;20004;-61
2021/04/30 15:27:11;;;;;;;;;;;;;;;;;;4975974;28;19906;-61
2021/04/30 15:29:36;;;;;;;;;;;;;;;;;;4975721;28;19906;-63
2021/04/30 15:32:01;;;;;;;;;;;;;;;;;;4975619;28;19921;-60
2021/04/30 15:34:27;;;;;;;;;;;;;;;;;;4976201;28;19906;-61
2021/04/30 15:36:52;;;;;;;;;;;;;;;;;;4975996;28;19912;-62
2021/04/30 15:39:17;;;;;;;;;;;;;;;;;;4974327;28;20270;-61
2021/04/30 15:41:43;;;;;;;;;;;;;;;;;;4976050;28;19925;-61
2021/04/30 15:44:09;;;;;;;;;;;;;;;;;;4975073;28;19906;-60
2021/04/30 15:46:34;;;;;;;;;;;;;;;;;;4958749;28;20239;-61
2021/04/30 15:48:59;;;;;;;;;;;;;;;;;;4974423;28;19910;-62
2021/04/30 15:51:24;;;;;;;;;;;;;;;;;;4975383;28;20013;-60
2021/04/30 15:53:50;;;;;;;;;;;;;;;;;;4974238;28;20353;-61
2021/04/30 15:56:15;;;;;;;;;;;;;;;;;;4975538;28;19914;-62
2021/04/30 15:58:40;;;;;;;;;;;;;;;;;;4974979;28;20289;-61
2021/04/30 16:01:06;;;;;;;;;;;;;;;;;;4975090;28;19909;-59
2021/04/30 16:03:31;;;;;;;;;;;;;;;;;;4977604;28;19914;-59
2021/04/30 16:05:57;;;;;;;;;;;;;;;;;;4975525;28;19945;-59
2021/04/30 16:08:22;;;;;;;;;;;;;;;;;;4972855;28;19973;-59
2021/04/30 16:10:47;;;;;;;;;;;;;;;;;;4957895;28;19913;-60
2021/04/30 16:13:12;;;;;;;;;;;;;;;;;;4974994;28;19972;-59
2021/04/30 16:15:37;;;;;;;;;;;;;;;;;;4974747;28;19932;-59
2021/04/30 16:18:03;;;;;;;;;;;;;;;;;;4974400;28;20354;-59
2021/04/30 16:20:28;;;;;;;;;;;;;;;;;;4974696;28;19906;-60
2021/04/30 16:22:53;;;;;;;;;;;;;;;;;;4972271;28;19910;-59
2021/04/30 16:25:19;;;;;;;;;;;;;;;;;;4974563;28;19929;-59
2021/04/30 16:27:44;;;;;;;;;;;;;;;;;;4975000;28;19906;-59
2021/04/30 16:30:09;;;;;;;;;;;;;;;;;;4974152;28;19953;-59
2021/04/30 16:32:34;;;;;;;;;;;;;;;;;;4955573;28;20000;-56